Terminal Aerodrome Forecast
Issued by NWS

Home | Current Version | Previous Version | Text Only | Print | Product List | Glossary On
Versions: 1 2 3 4 5 6 7 8 9 10 11 12 13 14 15 16
000
FTUS43 KFGF 181138
TAFTVF
TAF
KTVF 181138Z 1812/1912 30007KT P6SM BKN060
     FM181500 31010KT P6SM FEW250
     FM181900 31013KT P6SM BKN070
     FM191100 20007KT P6SM BKN100=

USA.gov is the U.S. government's official web portal to all federal, state and local government web resources and services.